sensor_id;sensor_type;location;lat;lon;timestamp;pressure;altitude;pressure_sealevel;temperature;humidity
61682;BME280;47577;43.610;25.010;2022-07-29T00:00:10;100437.31;;;23.10;63.41
61682;BME280;47577;43.610;25.010;2022-07-29T00:02:37;100431.03;;;23.10;62.50
61682;BME280;47577;43.610;25.010;2022-07-29T00:05:03;100433.88;;;23.08;62.86
61682;BME280;47577;43.610;25.010;2022-07-29T00:07:29;100436.06;;;23.03;63.49
61682;BME280;47577;43.610;25.010;2022-07-29T00:09:56;100425.91;;;22.95;63.18
61682;BME280;47577;43.610;25.010;2022-07-29T00:12:23;100430.38;;;22.85;63.78
61682;BME280;47577;43.610;25.010;2022-07-29T00:14:51;100434.47;;;22.79;63.66
61682;BME280;47577;43.610;25.010;2022-07-29T00:17:17;100436.59;;;22.76;62.97
61682;BME280;47577;43.610;25.010;2022-07-29T00:19:43;100434.41;;;22.70;64.41
61682;BME280;47577;43.610;25.010;2022-07-29T00:24:35;100433.09;;;22.53;64.97
61682;BME280;47577;43.610;25.010;2022-07-29T00:27:01;100429.66;;;22.51;64.83
61682;BME280;47577;43.610;25.010;2022-07-29T00:29:27;100430.63;;;22.50;65.13
61682;BME280;47577;43.610;25.010;2022-07-29T00:31:54;100430.41;;;22.41;65.83
61682;BME280;47577;43.610;25.010;2022-07-29T00:34:20;100427.34;;;22.35;65.38
61682;BME280;47577;43.610;25.010;2022-07-29T00:37:04;100435.75;;;22.32;64.97
61682;BME280;47577;43.610;25.010;2022-07-29T00:39:31;100437.09;;;22.26;65.24
61682;BME280;47577;43.610;25.010;2022-07-29T00:41:57;100440.66;;;22.26;65.76
61682;BME280;47577;43.610;25.010;2022-07-29T00:44:23;100439.03;;;22.24;65.86
61682;BME280;47577;43.610;25.010;2022-07-29T00:46:49;100442.16;;;22.19;65.76
61682;BME280;47577;43.610;25.010;2022-07-29T00:49:16;100439.69;;;22.16;65.64
61682;BME280;47577;43.610;25.010;2022-07-29T00:51:42;100439.56;;;22.18;65.25
61682;BME280;47577;43.610;25.010;2022-07-29T00:54:08;100435.13;;;22.17;66.04
61682;BME280;47577;43.610;25.010;2022-07-29T00:56:35;100429.84;;;22.15;65.83
61682;BME280;47577;43.610;25.010;2022-07-29T00:59:01;100444.88;;;22.08;66.14
61682;BME280;47577;43.610;25.010;2022-07-29T01:01:28;100447.94;;;22.03;66.60
61682;BME280;47577;43.610;25.010;2022-07-29T01:03:53;100450.31;;;21.97;66.46
61682;BME280;47577;43.610;25.010;2022-07-29T01:06:20;100445.63;;;21.99;66.21
61682;BME280;47577;43.610;25.010;2022-07-29T01:08:46;100440.09;;;21.89;66.20
61682;BME280;47577;43.610;25.010;2022-07-29T01:11:13;100434.66;;;21.89;65.69
61682;BME280;47577;43.610;25.010;2022-07-29T01:13:40;100442.44;;;21.82;66.88
61682;BME280;47577;43.610;25.010;2022-07-29T01:16:24;100440.09;;;21.78;67.29
61682;BME280;47577;43.610;25.010;2022-07-29T01:18:54;100449.06;;;21.78;66.58
61682;BME280;47577;43.610;25.010;2022-07-29T01:21:43;100449.06;;;21.78;67.27
61682;BME280;47577;43.610;25.010;2022-07-29T01:29:36;100445.88;;;21.73;67.52
61682;BME280;47577;43.610;25.010;2022-07-29T01:32:10;100438.22;;;21.67;67.05
61682;BME280;47577;43.610;25.010;2022-07-29T01:34:54;100433.81;;;21.66;67.03
61682;BME280;47577;43.610;25.010;2022-07-29T01:37:28;100427.91;;;21.61;67.48
61682;BME280;47577;43.610;25.010;2022-07-29T01:39:56;100429.50;;;21.52;67.81
61682;BME280;47577;43.610;25.010;2022-07-29T01:47:44;100424.06;;;21.41;67.88
61682;BME280;47577;43.610;25.010;2022-07-29T01:50:12;100415.94;;;21.41;67.54
61682;BME280;47577;43.610;25.010;2022-07-29T01:52:54;100420.63;;;21.39;67.88
61682;BME280;47577;43.610;25.010;2022-07-29T01:55:22;100417.91;;;21.39;68.80
61682;BME280;47577;43.610;25.010;2022-07-29T01:57:51;100414.97;;;21.42;67.87
61682;BME280;47577;43.610;25.010;2022-07-29T02:00:17;100420.00;;;21.35;68.35
61682;BME280;47577;43.610;25.010;2022-07-29T02:02:44;100424.91;;;21.41;68.52
61682;BME280;47577;43.610;25.010;2022-07-29T02:05:13;100425.28;;;21.36;67.67
61682;BME280;47577;43.610;25.010;2022-07-29T02:07:43;100420.13;;;21.33;67.73
61682;BME280;47577;43.610;25.010;2022-07-29T02:10:11;100421.31;;;21.29;68.48
61682;BME280;47577;43.610;25.010;2022-07-29T02:12:38;100419.88;;;21.25;68.81
61682;BME280;47577;43.610;25.010;2022-07-29T02:15:05;100427.31;;;21.22;69.33
61682;BME280;47577;43.610;25.010;2022-07-29T02:17:39;100426.72;;;21.18;69.48
61682;BME280;47577;43.610;25.010;2022-07-29T02:20:06;100424.84;;;21.18;69.10
61682;BME280;47577;43.610;25.010;2022-07-29T02:22:33;100422.03;;;21.20;68.98
61682;BME280;47577;43.610;25.010;2022-07-29T02:25:01;100422.16;;;21.18;69.14
61682;BME280;47577;43.610;25.010;2022-07-29T02:27:27;100419.56;;;21.17;69.93
61682;BME280;47577;43.610;25.010;2022-07-29T02:29:54;100419.72;;;21.15;68.93
61682;BME280;47577;43.610;25.010;2022-07-29T02:32:23;100423.75;;;21.10;69.69
61682;BME280;47577;43.610;25.010;2022-07-29T02:34:49;100424.09;;;21.05;69.04
61682;BME280;47577;43.610;25.010;2022-07-29T02:37:17;100415.50;;;21.00;69.55
61682;BME280;47577;43.610;25.010;2022-07-29T02:39:43;100423.22;;;20.93;69.67
61682;BME280;47577;43.610;25.010;2022-07-29T02:42:11;100428.00;;;20.90;70.34
61682;BME280;47577;43.610;25.010;2022-07-29T02:44:38;100425.69;;;20.96;69.43
61682;BME280;47577;43.610;25.010;2022-07-29T02:49:38;100426.88;;;20.92;69.28
61682;BME280;47577;43.610;25.010;2022-07-29T02:52:26;100428.75;;;20.92;69.97
61682;BME280;47577;43.610;25.010;2022-07-29T02:57:47;100437.31;;;20.86;70.02
61682;BME280;47577;43.610;25.010;2022-07-29T03:00:15;100429.31;;;20.84;70.36
61682;BME280;47577;43.610;25.010;2022-07-29T03:02:44;100440.47;;;20.79;70.14
61682;BME280;47577;43.610;25.010;2022-07-29T03:05:17;100432.03;;;20.84;70.53
61682;BME280;47577;43.610;25.010;2022-07-29T03:07:46;100436.19;;;20.77;69.34
61682;BME280;47577;43.610;25.010;2022-07-29T03:10:13;100429.91;;;20.76;69.58
61682;BME280;47577;43.610;25.010;2022-07-29T03:12:40;100435.28;;;20.76;70.03
61682;BME280;47577;43.610;25.010;2022-07-29T03:15:06;100445.88;;;20.79;70.40
61682;BME280;47577;43.610;25.010;2022-07-29T03:17:34;100444.28;;;20.77;69.68
61682;BME280;47577;43.610;25.010;2022-07-29T03:19:59;100444.16;;;20.78;69.91
61682;BME280;47577;43.610;25.010;2022-07-29T03:22:25;100451.50;;;20.76;70.52
61682;BME280;47577;43.610;25.010;2022-07-29T03:24:52;100453.00;;;20.80;70.95
61682;BME280;47577;43.610;25.010;2022-07-29T03:27:17;100456.22;;;20.86;71.05
61682;BME280;47577;43.610;25.010;2022-07-29T03:29:43;100456.97;;;20.88;71.01
61682;BME280;47577;43.610;25.010;2022-07-29T03:32:09;100457.50;;;20.93;70.74
61682;BME280;47577;43.610;25.010;2022-07-29T03:34:35;100461.66;;;20.97;69.73
61682;BME280;47577;43.610;25.010;2022-07-29T03:37:02;100461.19;;;21.03;70.30
61682;BME280;47577;43.610;25.010;2022-07-29T03:39:29;100469.78;;;20.97;71.09
61682;BME280;47577;43.610;25.010;2022-07-29T03:41:56;100466.09;;;20.98;71.90
61682;BME280;47577;43.610;25.010;2022-07-29T03:44:24;100470.28;;;21.02;71.89
61682;BME280;47577;43.610;25.010;2022-07-29T03:46:52;100467.63;;;21.13;71.76
61682;BME280;47577;43.610;25.010;2022-07-29T03:49:20;100472.56;;;21.19;71.57
61682;BME280;47577;43.610;25.010;2022-07-29T03:51:47;100469.63;;;21.34;70.74
61682;BME280;47577;43.610;25.010;2022-07-29T03:54:13;100472.97;;;21.37;70.61
61682;BME280;47577;43.610;25.010;2022-07-29T03:56:41;100475.72;;;21.49;70.37
61682;BME280;47577;43.610;25.010;2022-07-29T03:59:08;100481.34;;;21.46;71.24
61682;BME280;47577;43.610;25.010;2022-07-29T04:01:36;100477.22;;;21.53;71.02
61682;BME280;47577;43.610;25.010;2022-07-29T04:04:04;100475.13;;;21.57;71.18
61682;BME280;47577;43.610;25.010;2022-07-29T04:06:40;100468.47;;;21.61;70.67
61682;BME280;47577;43.610;25.010;2022-07-29T04:09:07;100466.66;;;21.72;70.91
61682;BME280;47577;43.610;25.010;2022-07-29T04:11:33;100470.72;;;21.78;70.95
61682;BME280;47577;43.610;25.010;2022-07-29T04:13:59;100472.56;;;21.89;70.93
61682;BME280;47577;43.610;25.010;2022-07-29T04:16:26;100480.56;;;22.02;70.25
61682;BME280;47577;43.610;25.010;2022-07-29T04:18:52;100481.16;;;22.17;69.62
61682;BME280;47577;43.610;25.010;2022-07-29T04:21:17;100477.97;;;22.34;70.43
61682;BME280;47577;43.610;25.010;2022-07-29T04:23:44;100486.41;;;22.52;69.79
61682;BME280;47577;43.610;25.010;2022-07-29T04:26:14;100488.00;;;22.66;69.88
61682;BME280;47577;43.610;25.010;2022-07-29T04:28:41;100491.13;;;22.82;68.87
61682;BME280;47577;43.610;25.010;2022-07-29T04:31:08;100490.84;;;22.97;69.61
61682;BME280;47577;43.610;25.010;2022-07-29T04:33:35;100480.31;;;23.04;69.20
61682;BME280;47577;43.610;25.010;2022-07-29T04:36:01;100476.00;;;23.12;69.10
61682;BME280;47577;43.610;25.010;2022-07-29T04:38:28;100471.50;;;23.23;68.72
61682;BME280;47577;43.610;25.010;2022-07-29T04:40:54;100475.28;;;23.31;69.61
61682;BME280;47577;43.610;25.010;2022-07-29T04:43:20;100461.06;;;23.39;68.78
61682;BME280;47577;43.610;25.010;2022-07-29T04:45:46;100462.81;;;23.50;68.72
61682;BME280;47577;43.610;25.010;2022-07-29T04:48:12;100474.59;;;23.60;68.37
61682;BME280;47577;43.610;25.010;2022-07-29T04:50:39;100461.34;;;23.67;68.83
61682;BME280;47577;43.610;25.010;2022-07-29T04:53:05;100469.53;;;23.77;67.75
61682;BME280;47577;43.610;25.010;2022-07-29T04:55:32;100469.75;;;23.85;67.31
61682;BME280;47577;43.610;25.010;2022-07-29T04:57:58;100462.63;;;23.94;67.47
61682;BME280;47577;43.610;25.010;2022-07-29T05:00:24;100468.69;;;24.07;67.61
61682;BME280;47577;43.610;25.010;2022-07-29T05:02:50;100474.72;;;24.11;66.63
61682;BME280;47577;43.610;25.010;2022-07-29T05:05:17;100479.91;;;24.23;66.99
61682;BME280;47577;43.610;25.010;2022-07-29T05:07:43;100477.66;;;24.38;66.14
61682;BME280;47577;43.610;25.010;2022-07-29T05:10:08;100475.66;;;24.50;64.35
61682;BME280;47577;43.610;25.010;2022-07-29T05:12:34;100475.44;;;24.63;63.80
61682;BME280;47577;43.610;25.010;2022-07-29T05:15:00;100467.84;;;24.67;64.20
61682;BME280;47577;43.610;25.010;2022-07-29T05:17:26;100473.16;;;24.78;64.16
61682;BME280;47577;43.610;25.010;2022-07-29T05:19:52;100473.28;;;24.86;62.57
61682;BME280;47577;43.610;25.010;2022-07-29T05:22:18;100476.88;;;24.96;62.00
61682;BME280;47577;43.610;25.010;2022-07-29T05:24:45;100489.19;;;25.00;61.17
61682;BME280;47577;43.610;25.010;2022-07-29T05:27:11;100490.63;;;24.95;61.56
61682;BME280;47577;43.610;25.010;2022-07-29T05:29:37;100488.75;;;25.05;60.74
61682;BME280;47577;43.610;25.010;2022-07-29T05:32:04;100487.63;;;25.08;61.08
61682;BME280;47577;43.610;25.010;2022-07-29T05:34:30;100484.59;;;25.21;60.43
61682;BME280;47577;43.610;25.010;2022-07-29T05:36:56;100481.03;;;25.30;59.82
61682;BME280;47577;43.610;25.010;2022-07-29T05:39:22;100481.63;;;25.33;61.09
61682;BME280;47577;43.610;25.010;2022-07-29T05:41:49;100487.19;;;25.42;60.59
61682;BME280;47577;43.610;25.010;2022-07-29T05:44:15;100491.00;;;25.59;60.05
61682;BME280;47577;43.610;25.010;2022-07-29T05:46:42;100491.69;;;25.61;61.03
61682;BME280;47577;43.610;25.010;2022-07-29T05:49:08;100488.09;;;25.70;60.05
61682;BME280;47577;43.610;25.010;2022-07-29T05:51:34;100494.22;;;25.82;59.48
61682;BME280;47577;43.610;25.010;2022-07-29T05:54:00;100482.03;;;25.86;58.46
61682;BME280;47577;43.610;25.010;2022-07-29T05:56:27;100482.03;;;25.86;58.49
61682;BME280;47577;43.610;25.010;2022-07-29T05:58:53;100492.78;;;25.87;58.35
61682;BME280;47577;43.610;25.010;2022-07-29T06:01:20;100493.50;;;25.80;59.22
61682;BME280;47577;43.610;25.010;2022-07-29T06:03:46;100494.94;;;25.84;58.64
61682;BME280;47577;43.610;25.010;2022-07-29T06:06:12;100504.66;;;25.86;58.02
61682;BME280;47577;43.610;25.010;2022-07-29T06:08:38;100499.63;;;26.01;57.37
61682;BME280;47577;43.610;25.010;2022-07-29T06:11:03;100506.19;;;26.08;57.10
61682;BME280;47577;43.610;25.010;2022-07-29T06:13:30;100504.06;;;26.02;57.42
61682;BME280;47577;43.610;25.010;2022-07-29T06:15:57;100509.59;;;26.20;56.70
61682;BME280;47577;43.610;25.010;2022-07-29T06:18:23;100501.50;;;26.28;56.21
61682;BME280;47577;43.610;25.010;2022-07-29T06:20:52;100506.06;;;26.38;55.29
61682;BME280;47577;43.610;25.010;2022-07-29T06:23:19;100506.69;;;26.50;54.79
61682;BME280;47577;43.610;25.010;2022-07-29T06:25:46;100502.81;;;26.52;52.90
61682;BME280;47577;43.610;25.010;2022-07-29T06:28:12;100504.31;;;26.64;51.64
61682;BME280;47577;43.610;25.010;2022-07-29T06:30:38;100505.53;;;26.80;53.17
61682;BME280;47577;43.610;25.010;2022-07-29T06:33:05;100518.06;;;26.73;50.55
61682;BME280;47577;43.610;25.010;2022-07-29T06:35:33;100513.31;;;26.75;51.93
61682;BME280;47577;43.610;25.010;2022-07-29T06:38:00;100514.31;;;26.92;53.22
61682;BME280;47577;43.610;25.010;2022-07-29T06:40:26;100517.84;;;27.02;52.59
61682;BME280;47577;43.610;25.010;2022-07-29T06:43:11;100526.88;;;27.21;52.62
61682;BME280;47577;43.610;25.010;2022-07-29T06:45:37;100523.63;;;27.35;50.09
61682;BME280;47577;43.610;25.010;2022-07-29T06:48:06;100519.94;;;27.44;49.23
61682;BME280;47577;43.610;25.010;2022-07-29T06:50:32;100518.53;;;27.40;49.91
61682;BME280;47577;43.610;25.010;2022-07-29T06:52:59;100503.78;;;27.51;51.13
61682;BME280;47577;43.610;25.010;2022-07-29T06:55:25;100512.13;;;27.76;49.68
61682;BME280;47577;43.610;25.010;2022-07-29T06:57:51;100513.09;;;27.93;47.63
61682;BME280;47577;43.610;25.010;2022-07-29T07:00:17;100513.69;;;28.04;46.83
61682;BME280;47577;43.610;25.010;2022-07-29T07:02:44;100509.16;;;28.21;46.85
61682;BME280;47577;43.610;25.010;2022-07-29T07:05:10;100504.44;;;28.32;45.74
61682;BME280;47577;43.610;25.010;2022-07-29T07:07:36;100505.63;;;28.37;45.55
61682;BME280;47577;43.610;25.010;2022-07-29T07:10:02;100503.13;;;28.52;45.32
61682;BME280;47577;43.610;25.010;2022-07-29T07:12:28;100498.56;;;28.61;45.28
61682;BME280;47577;43.610;25.010;2022-07-29T07:14:55;100488.25;;;28.55;43.77
61682;BME280;47577;43.610;25.010;2022-07-29T07:17:21;100494.81;;;28.70;44.73
61682;BME280;47577;43.610;25.010;2022-07-29T07:19:47;100497.25;;;28.90;44.37
61682;BME280;47577;43.610;25.010;2022-07-29T07:22:13;100494.88;;;29.03;43.93
61682;BME280;47577;43.610;25.010;2022-07-29T07:24:39;100492.81;;;28.97;43.96
61682;BME280;47577;43.610;25.010;2022-07-29T07:27:06;100490.75;;;29.15;41.67
61682;BME280;47577;43.610;25.010;2022-07-29T07:29:32;100496.97;;;29.26;42.17
61682;BME280;47577;43.610;25.010;2022-07-29T07:31:58;100496.25;;;29.24;41.23
61682;BME280;47577;43.610;25.010;2022-07-29T07:34:24;100493.00;;;29.45;41.14
61682;BME280;47577;43.610;25.010;2022-07-29T07:36:50;100486.66;;;29.52;40.28
61682;BME280;47577;43.610;25.010;2022-07-29T07:39:17;100493.31;;;29.66;40.83
61682;BME280;47577;43.610;25.010;2022-07-29T07:41:43;100491.59;;;29.82;39.33
61682;BME280;47577;43.610;25.010;2022-07-29T07:44:10;100491.41;;;29.83;39.40
61682;BME280;47577;43.610;25.010;2022-07-29T07:46:36;100488.66;;;29.75;39.98
61682;BME280;47577;43.610;25.010;2022-07-29T07:49:02;100494.13;;;29.92;38.55
61682;BME280;47577;43.610;25.010;2022-07-29T07:51:28;100491.88;;;30.03;39.05
61682;BME280;47577;43.610;25.010;2022-07-29T07:53:54;100484.13;;;30.15;38.87
61682;BME280;47577;43.610;25.010;2022-07-29T07:56:20;100487.81;;;30.39;38.83
61682;BME280;47577;43.610;25.010;2022-07-29T07:58:46;100484.47;;;30.52;38.00
61682;BME280;47577;43.610;25.010;2022-07-29T08:01:13;100488.94;;;30.76;37.19
61682;BME280;47577;43.610;25.010;2022-07-29T08:03:39;100490.59;;;30.85;37.26
61682;BME280;47577;43.610;25.010;2022-07-29T08:06:05;100494.00;;;30.87;37.46
61682;BME280;47577;43.610;25.010;2022-07-29T08:08:32;100490.88;;;30.98;35.75
61682;BME280;47577;43.610;25.010;2022-07-29T08:10:58;100494.91;;;31.11;36.76
61682;BME280;47577;43.610;25.010;2022-07-29T08:13:25;100498.59;;;31.18;36.07
61682;BME280;47577;43.610;25.010;2022-07-29T08:15:53;100493.81;;;31.20;35.26
61682;BME280;47577;43.610;25.010;2022-07-29T08:18:38;100496.38;;;31.22;35.45
61682;BME280;47577;43.610;25.010;2022-07-29T08:21:04;100488.25;;;31.28;35.15
61682;BME280;47577;43.610;25.010;2022-07-29T08:23:31;100492.75;;;31.21;34.76
61682;BME280;47577;43.610;25.010;2022-07-29T08:26:07;100483.75;;;31.12;34.04
61682;BME280;47577;43.610;25.010;2022-07-29T08:28:37;100485.03;;;31.25;34.74
61682;BME280;47577;43.610;25.010;2022-07-29T08:31:03;100490.34;;;31.41;34.74
61682;BME280;47577;43.610;25.010;2022-07-29T08:33:29;100490.59;;;31.55;35.28
61682;BME280;47577;43.610;25.010;2022-07-29T08:35:56;100480.56;;;31.62;32.21
61682;BME280;47577;43.610;25.010;2022-07-29T08:38:22;100478.31;;;31.80;33.09
61682;BME280;47577;43.610;25.010;2022-07-29T08:40:49;100470.34;;;31.85;32.57
61682;BME280;47577;43.610;25.010;2022-07-29T08:43:14;100471.47;;;31.76;32.67
61682;BME280;47577;43.610;25.010;2022-07-29T08:45:47;100479.44;;;32.01;33.35
61682;BME280;47577;43.610;25.010;2022-07-29T08:48:14;100467.22;;;32.18;32.70
61682;BME280;47577;43.610;25.010;2022-07-29T08:50:41;100465.88;;;32.29;32.71
61682;BME280;47577;43.610;25.010;2022-07-29T08:53:10;100467.88;;;32.20;32.97
61682;BME280;47577;43.610;25.010;2022-07-29T08:55:40;100459.88;;;32.40;32.65
61682;BME280;47577;43.610;25.010;2022-07-29T08:58:08;100458.13;;;32.54;31.76
61682;BME280;47577;43.610;25.010;2022-07-29T09:00:40;100457.91;;;32.71;32.25
61682;BME280;47577;43.610;25.010;2022-07-29T09:03:07;100456.66;;;32.95;32.40
61682;BME280;47577;43.610;25.010;2022-07-29T09:05:34;100453.97;;;33.02;31.08
61682;BME280;47577;43.610;25.010;2022-07-29T09:08:01;100445.88;;;32.57;31.25
61682;BME280;47577;43.610;25.010;2022-07-29T09:10:27;100457.91;;;32.71;31.31
61682;BME280;47577;43.610;25.010;2022-07-29T09:12:56;100451.94;;;32.89;31.62
61682;BME280;47577;43.610;25.010;2022-07-29T09:15:23;100451.28;;;33.08;30.80
61682;BME280;47577;43.610;25.010;2022-07-29T09:17:49;100453.03;;;32.94;32.68
61682;BME280;47577;43.610;25.010;2022-07-29T09:20:17;100444.41;;;33.19;31.75
61682;BME280;47577;43.610;25.010;2022-07-29T09:22:43;100437.09;;;33.33;32.16
61682;BME280;47577;43.610;25.010;2022-07-29T09:25:12;100440.53;;;33.42;31.50
61682;BME280;47577;43.610;25.010;2022-07-29T09:27:38;100451.00;;;33.53;29.60
61682;BME280;47577;43.610;25.010;2022-07-29T09:30:07;100446.47;;;33.39;29.70
61682;BME280;47577;43.610;25.010;2022-07-29T09:32:55;100445.31;;;33.26;29.80
61682;BME280;47577;43.610;25.010;2022-07-29T09:35:22;100444.41;;;33.19;30.82
61682;BME280;47577;43.610;25.010;2022-07-29T09:37:50;100442.06;;;33.44;30.55
61682;BME280;47577;43.610;25.010;2022-07-29T09:40:17;100445.22;;;33.69;30.09
61682;BME280;47577;43.610;25.010;2022-07-29T09:42:44;100440.88;;;33.95;29.72
61682;BME280;47577;43.610;25.010;2022-07-29T09:45:10;100431.59;;;34.03;27.73
61682;BME280;47577;43.610;25.010;2022-07-29T09:47:44;100428.59;;;33.91;27.68
61682;BME280;47577;43.610;25.010;2022-07-29T09:50:11;100423.31;;;34.03;28.18
61682;BME280;47577;43.610;25.010;2022-07-29T09:52:47;100430.81;;;34.16;28.64
61682;BME280;47577;43.610;25.010;2022-07-29T09:55:14;100419.22;;;34.34;28.09
61682;BME280;47577;43.610;25.010;2022-07-29T09:57:41;100417.97;;;34.36;28.46
61682;BME280;47577;43.610;25.010;2022-07-29T10:00:08;100406.13;;;34.63;27.30
61682;BME280;47577;43.610;25.010;2022-07-29T10:02:36;100414.00;;;34.66;27.23
61682;BME280;47577;43.610;25.010;2022-07-29T10:05:03;100405.31;;;34.75;26.31
61682;BME280;47577;43.610;25.010;2022-07-29T10:07:44;100404.50;;;34.88;26.85
61682;BME280;47577;43.610;25.010;2022-07-29T10:10:11;100396.19;;;35.08;25.32
61682;BME280;47577;43.610;25.010;2022-07-29T10:12:51;100406.59;;;35.06;24.96
61682;BME280;47577;43.610;25.010;2022-07-29T10:15:18;100404.91;;;34.85;25.36
61682;BME280;47577;43.610;25.010;2022-07-29T10:17:46;100397.06;;;35.09;25.28
61682;BME280;47577;43.610;25.010;2022-07-29T10:20:14;100395.56;;;35.13;25.89
61682;BME280;47577;43.610;25.010;2022-07-29T10:22:40;100394.69;;;34.92;25.41
61682;BME280;47577;43.610;25.010;2022-07-29T10:25:07;100392.16;;;35.04;25.56
61682;BME280;47577;43.610;25.010;2022-07-29T10:27:34;100394.72;;;35.06;23.94
61682;BME280;47577;43.610;25.010;2022-07-29T10:30:00;100398.13;;;35.35;25.65
61682;BME280;47577;43.610;25.010;2022-07-29T10:43:02;100372.00;;;36.41;23.86
61682;BME280;47577;43.610;25.010;2022-07-29T10:45:34;100371.63;;;36.31;22.25
61682;BME280;47577;43.610;25.010;2022-07-29T10:48:04;100367.19;;;36.23;23.50
61682;BME280;47577;43.610;25.010;2022-07-29T10:51:14;100369.94;;;36.30;23.81
61682;BME280;47577;43.610;25.010;2022-07-29T10:53:24;100360.19;;;36.14;23.61
61682;BME280;47577;43.610;25.010;2022-07-29T10:56:22;100360.41;;;36.26;22.54
61682;BME280;47577;43.610;25.010;2022-07-29T11:01:34;100358.88;;;36.62;22.78
61682;BME280;47577;43.610;25.010;2022-07-29T11:04:00;100359.88;;;36.74;21.16
61682;BME280;47577;43.610;25.010;2022-07-29T11:06:31;100356.25;;;36.67;22.54
61682;BME280;47577;43.610;25.010;2022-07-29T11:09:19;100353.75;;;36.90;22.31
61682;BME280;47577;43.610;25.010;2022-07-29T11:11:44;100357.53;;;36.96;20.63
61682;BME280;47577;43.610;25.010;2022-07-29T11:14:11;100340.72;;;36.66;22.00
61682;BME280;47577;43.610;25.010;2022-07-29T11:19:22;100325.50;;;36.82;21.09
61682;BME280;47577;43.610;25.010;2022-07-29T11:21:48;100322.78;;;37.00;20.89
61682;BME280;47577;43.610;25.010;2022-07-29T11:24:19;100329.00;;;37.14;20.14
61682;BME280;47577;43.610;25.010;2022-07-29T11:27:32;100327.38;;;37.31;20.95
61682;BME280;47577;43.610;25.010;2022-07-29T11:29:33;100324.75;;;37.55;21.00
61682;BME280;47577;43.610;25.010;2022-07-29T11:32:13;100325.44;;;37.50;20.18
61682;BME280;47577;43.610;25.010;2022-07-29T11:34:44;100322.22;;;37.54;20.13
61682;BME280;47577;43.610;25.010;2022-07-29T11:39:39;100315.47;;;37.68;19.85
61682;BME280;47577;43.610;25.010;2022-07-29T11:44:54;100314.44;;;37.81;19.58
61682;BME280;47577;43.610;25.010;2022-07-29T11:47:22;100316.50;;;37.85;19.71
61682;BME280;47577;43.610;25.010;2022-07-29T11:49:48;100314.63;;;37.98;19.72
61682;BME280;47577;43.610;25.010;2022-07-29T11:52:17;100311.38;;;38.01;19.37
61682;BME280;47577;43.610;25.010;2022-07-29T11:54:42;100304.50;;;37.73;19.73
61682;BME280;47577;43.610;25.010;2022-07-29T11:57:09;100301.50;;;37.75;19.35
61682;BME280;47577;43.610;25.010;2022-07-29T11:59:41;100291.41;;;37.43;20.19
61682;BME280;47577;43.610;25.010;2022-07-29T12:02:08;100307.19;;;37.80;20.50
61682;BME280;47577;43.610;25.010;2022-07-29T12:04:56;100308.00;;;37.99;20.21
61682;BME280;47577;43.610;25.010;2022-07-29T12:07:27;100304.78;;;38.14;18.97
61682;BME280;47577;43.610;25.010;2022-07-29T12:09:53;100293.50;;;38.27;19.53
61682;BME280;47577;43.610;25.010;2022-07-29T12:12:20;100280.09;;;37.94;19.13
61682;BME280;47577;43.610;25.010;2022-07-29T12:14:46;100283.41;;;37.54;20.68
61682;BME280;47577;43.610;25.010;2022-07-29T12:17:28;100283.28;;;37.97;19.67
61682;BME280;47577;43.610;25.010;2022-07-29T12:19:55;100278.28;;;38.18;18.41
61682;BME280;47577;43.610;25.010;2022-07-29T12:22:40;100276.97;;;38.20;18.90
61682;BME280;47577;43.610;25.010;2022-07-29T12:25:12;100282.66;;;38.37;18.26
61682;BME280;47577;43.610;25.010;2022-07-29T12:27:41;100257.91;;;38.36;18.63
61682;BME280;47577;43.610;25.010;2022-07-29T12:30:09;100267.81;;;38.32;18.78
61682;BME280;47577;43.610;25.010;2022-07-29T12:32:36;100265.81;;;38.51;18.46
61682;BME280;47577;43.610;25.010;2022-07-29T12:35:10;100269.94;;;38.72;18.67
61682;BME280;47577;43.610;25.010;2022-07-29T12:37:39;100269.84;;;38.67;18.34
61682;BME280;47577;43.610;25.010;2022-07-29T12:40:05;100250.13;;;38.80;18.49
61682;BME280;47577;43.610;25.010;2022-07-29T12:42:31;100256.75;;;38.91;17.93
61682;BME280;47577;43.610;25.010;2022-07-29T12:44:57;100246.25;;;38.81;18.49
61682;BME280;47577;43.610;25.010;2022-07-29T12:47:23;100231.53;;;38.81;17.91
61682;BME280;47577;43.610;25.010;2022-07-29T12:49:50;100228.50;;;38.82;19.31
61682;BME280;47577;43.610;25.010;2022-07-29T12:52:25;100225.34;;;38.90;19.15
61682;BME280;47577;43.610;25.010;2022-07-29T12:54:52;100232.81;;;39.02;18.88
61682;BME280;47577;43.610;25.010;2022-07-29T12:57:18;100223.28;;;39.21;18.49
61682;BME280;47577;43.610;25.010;2022-07-29T12:59:45;100230.00;;;39.37;18.80
61682;BME280;47577;43.610;25.010;2022-07-29T13:02:23;100231.66;;;39.50;18.84
61682;BME280;47577;43.610;25.010;2022-07-29T13:04:55;100227.41;;;39.47;19.48
61682;BME280;47577;43.610;25.010;2022-07-29T13:07:26;100232.78;;;39.37;19.93
61682;BME280;47577;43.610;25.010;2022-07-29T13:09:53;100226.53;;;39.30;20.24
61682;BME280;47577;43.610;25.010;2022-07-29T13:12:20;100221.31;;;39.22;20.26
61682;BME280;47577;43.610;25.010;2022-07-29T13:14:47;100219.13;;;39.36;20.50
61682;BME280;47577;43.610;25.010;2022-07-29T13:19:42;100213.81;;;39.34;19.33
61682;BME280;47577;43.610;25.010;2022-07-29T13:22:12;100223.31;;;39.50;20.05
61682;BME280;47577;43.610;25.010;2022-07-29T13:24:49;100213.25;;;39.61;19.26
61682;BME280;47577;43.610;25.010;2022-07-29T13:27:18;100213.78;;;39.75;18.90